sensor_id;sensor_type;location;lat;lon;timestamp;P1;durP1;ratioP1;P2;durP2;ratioP2
69981;SDS011;57319;56.274;43.980;2023-01-31T00:00:24;15.55;;;8.75;;
69981;SDS011;57319;56.274;43.980;2023-01-31T00:02:50;15.95;;;7.97;;
69981;SDS011;57319;56.274;43.980;2023-01-31T00:05:16;17.05;;;9.25;;
69981;SDS011;57319;56.274;43.980;2023-01-31T00:07:44;18.02;;;9.00;;
69981;SDS011;57319;56.274;43.980;2023-01-31T00:10:11;20.33;;;8.73;;
69981;SDS011;57319;56.274;43.980;2023-01-31T00:12:36;15.02;;;9.32;;
69981;SDS011;57319;56.274;43.980;2023-01-31T00:15:02;15.20;;;7.88;;
69981;SDS011;57319;56.274;43.980;2023-01-31T00:17:28;14.63;;;8.02;;
69981;SDS011;57319;56.274;43.980;2023-01-31T00:19:54;14.20;;;8.27;;
69981;SDS011;57319;56.274;43.980;2023-01-31T00:22:19;13.57;;;7.93;;
69981;SDS011;57319;56.274;43.980;2023-01-31T00:24:45;16.02;;;9.07;;
69981;SDS011;57319;56.274;43.980;2023-01-31T00:27:10;19.50;;;9.35;;
69981;SDS011;57319;56.274;43.980;2023-01-31T00:29:36;19.02;;;9.52;;
69981;SDS011;57319;56.274;43.980;2023-01-31T00:32:01;18.85;;;9.45;;
69981;SDS011;57319;56.274;43.980;2023-01-31T00:34:28;19.80;;;10.05;;
69981;SDS011;57319;56.274;43.980;2023-01-31T00:36:53;15.70;;;9.07;;
69981;SDS011;57319;56.274;43.980;2023-01-31T00:39:19;14.73;;;9.02;;
69981;SDS011;57319;56.274;43.980;2023-01-31T00:41:44;20.27;;;9.48;;
69981;SDS011;57319;56.274;43.980;2023-01-31T00:44:10;21.80;;;10.65;;
69981;SDS011;57319;56.274;43.980;2023-01-31T00:46:35;20.58;;;10.30;;
69981;SDS011;57319;56.274;43.980;2023-01-31T00:49:01;19.33;;;8.95;;
69981;SDS011;57319;56.274;43.980;2023-01-31T00:51:28;17.00;;;10.18;;
69981;SDS011;57319;56.274;43.980;2023-01-31T00:53:53;16.15;;;9.25;;
69981;SDS011;57319;56.274;43.980;2023-01-31T00:56:20;23.23;;;10.93;;
69981;SDS011;57319;56.274;43.980;2023-01-31T00:58:47;17.73;;;9.75;;
69981;SDS011;57319;56.274;43.980;2023-01-31T01:01:27;18.40;;;9.07;;
69981;SDS011;57319;56.274;43.980;2023-01-31T01:03:54;20.33;;;11.38;;
69981;SDS011;57319;56.274;43.980;2023-01-31T01:06:21;20.80;;;10.40;;
69981;SDS011;57319;56.274;43.980;2023-01-31T01:08:47;21.90;;;11.30;;
69981;SDS011;57319;56.274;43.980;2023-01-31T01:11:14;19.77;;;10.55;;
69981;SDS011;57319;56.274;43.980;2023-01-31T01:13:42;22.25;;;10.68;;
69981;SDS011;57319;56.274;43.980;2023-01-31T01:16:09;18.58;;;11.00;;
69981;SDS011;57319;56.274;43.980;2023-01-31T01:18:41;21.50;;;11.27;;
69981;SDS011;57319;56.274;43.980;2023-01-31T01:21:19;19.83;;;9.90;;
69981;SDS011;57319;56.274;43.980;2023-01-31T01:23:49;33.97;;;11.68;;
69981;SDS011;57319;56.274;43.980;2023-01-31T01:26:17;20.35;;;10.52;;
69981;SDS011;57319;56.274;43.980;2023-01-31T01:28:45;23.45;;;11.57;;
69981;SDS011;57319;56.274;43.980;2023-01-31T01:31:12;19.50;;;10.82;;
69981;SDS011;57319;56.274;43.980;2023-01-31T01:33:40;24.02;;;10.95;;
69981;SDS011;57319;56.274;43.980;2023-01-31T01:36:07;16.88;;;10.63;;
69981;SDS011;57319;56.274;43.980;2023-01-31T01:41:08;22.13;;;10.65;;
69981;SDS011;57319;56.274;43.980;2023-01-31T01:46:13;23.25;;;10.13;;
69981;SDS011;57319;56.274;43.980;2023-01-31T01:48:51;23.52;;;10.57;;
69981;SDS011;57319;56.274;43.980;2023-01-31T01:51:22;22.75;;;11.10;;
69981;SDS011;57319;56.274;43.980;2023-01-31T01:53:49;20.25;;;10.52;;
69981;SDS011;57319;56.274;43.980;2023-01-31T01:56:20;19.13;;;11.13;;
69981;SDS011;57319;56.274;43.980;2023-01-31T02:01:18;17.45;;;10.43;;
69981;SDS011;57319;56.274;43.980;2023-01-31T02:03:45;25.33;;;11.02;;
69981;SDS011;57319;56.274;43.980;2023-01-31T02:06:13;16.92;;;9.50;;
69981;SDS011;57319;56.274;43.980;2023-01-31T02:08:39;17.33;;;9.90;;
69981;SDS011;57319;56.274;43.980;2023-01-31T02:13:32;19.15;;;10.10;;
69981;SDS011;57319;56.274;43.980;2023-01-31T02:15:58;18.92;;;10.15;;
69981;SDS011;57319;56.274;43.980;2023-01-31T02:18:24;21.67;;;11.45;;
69981;SDS011;57319;56.274;43.980;2023-01-31T02:23:50;21.45;;;11.05;;
69981;SDS011;57319;56.274;43.980;2023-01-31T02:29:41;24.83;;;10.80;;
69981;SDS011;57319;56.274;43.980;2023-01-31T02:32:43;19.20;;;9.75;;
69981;SDS011;57319;56.274;43.980;2023-01-31T02:35:21;19.83;;;11.20;;
69981;SDS011;57319;56.274;43.980;2023-01-31T02:41:21;17.70;;;10.73;;
69981;SDS011;57319;56.274;43.980;2023-01-31T02:47:04;19.73;;;10.55;;
69981;SDS011;57319;56.274;43.980;2023-01-31T02:50:10;15.60;;;8.83;;
69981;SDS011;57319;56.274;43.980;2023-01-31T02:53:09;23.30;;;10.57;;
69981;SDS011;57319;56.274;43.980;2023-01-31T02:55:37;18.27;;;9.63;;
69981;SDS011;57319;56.274;43.980;2023-01-31T02:58:23;17.13;;;9.85;;
69981;SDS011;57319;56.274;43.980;2023-01-31T03:00:54;17.90;;;9.07;;
69981;SDS011;57319;56.274;43.980;2023-01-31T03:03:24;20.23;;;9.93;;
69981;SDS011;57319;56.274;43.980;2023-01-31T03:09:19;27.42;;;10.05;;
69981;SDS011;57319;56.274;43.980;2023-01-31T03:22:44;26.38;;;10.52;;
69981;SDS011;57319;56.274;43.980;2023-01-31T03:25:14;20.80;;;10.60;;
69981;SDS011;57319;56.274;43.980;2023-01-31T03:27:43;16.88;;;8.75;;
69981;SDS011;57319;56.274;43.980;2023-01-31T03:30:13;19.02;;;9.05;;
69981;SDS011;57319;56.274;43.980;2023-01-31T03:32:49;14.95;;;9.48;;
69981;SDS011;57319;56.274;43.980;2023-01-31T03:35:20;14.57;;;8.88;;
69981;SDS011;57319;56.274;43.980;2023-01-31T03:40:56;20.88;;;9.90;;
69981;SDS011;57319;56.274;43.980;2023-01-31T03:43:36;17.05;;;9.10;;
69981;SDS011;57319;56.274;43.980;2023-01-31T03:46:11;16.50;;;9.63;;
69981;SDS011;57319;56.274;43.980;2023-01-31T03:48:42;16.90;;;8.98;;
69981;SDS011;57319;56.274;43.980;2023-01-31T03:51:14;22.10;;;10.93;;
69981;SDS011;57319;56.274;43.980;2023-01-31T03:59:11;27.58;;;9.13;;
69981;SDS011;57319;56.274;43.980;2023-01-31T04:01:45;16.67;;;9.63;;
69981;SDS011;57319;56.274;43.980;2023-01-31T04:04:20;18.63;;;9.70;;
69981;SDS011;57319;56.274;43.980;2023-01-31T04:06:50;18.40;;;9.55;;
69981;SDS011;57319;56.274;43.980;2023-01-31T04:09:16;18.40;;;8.80;;
69981;SDS011;57319;56.274;43.980;2023-01-31T04:11:46;18.20;;;9.20;;
69981;SDS011;57319;56.274;43.980;2023-01-31T04:14:13;14.60;;;9.07;;
69981;SDS011;57319;56.274;43.980;2023-01-31T04:16:39;16.17;;;9.65;;
69981;SDS011;57319;56.274;43.980;2023-01-31T04:19:05;17.15;;;8.25;;
69981;SDS011;57319;56.274;43.980;2023-01-31T04:21:30;21.65;;;9.52;;
69981;SDS011;57319;56.274;43.980;2023-01-31T04:23:56;18.90;;;8.43;;
69981;SDS011;57319;56.274;43.980;2023-01-31T04:26:21;23.13;;;10.63;;
69981;SDS011;57319;56.274;43.980;2023-01-31T04:28:47;20.85;;;8.88;;
69981;SDS011;57319;56.274;43.980;2023-01-31T04:31:13;16.30;;;9.05;;
69981;SDS011;57319;56.274;43.980;2023-01-31T04:33:38;9.45;;;6.88;;
69981;SDS011;57319;56.274;43.980;2023-01-31T04:36:04;15.35;;;7.82;;
69981;SDS011;57319;56.274;43.980;2023-01-31T04:38:30;17.60;;;9.15;;
69981;SDS011;57319;56.274;43.980;2023-01-31T04:40:55;15.95;;;8.80;;
69981;SDS011;57319;56.274;43.980;2023-01-31T04:43:21;12.95;;;7.53;;
69981;SDS011;57319;56.274;43.980;2023-01-31T04:45:47;17.95;;;8.73;;
69981;SDS011;57319;56.274;43.980;2023-01-31T04:48:12;13.00;;;7.95;;
69981;SDS011;57319;56.274;43.980;2023-01-31T04:50:38;21.08;;;8.90;;
69981;SDS011;57319;56.274;43.980;2023-01-31T04:53:03;13.80;;;8.27;;
69981;SDS011;57319;56.274;43.980;2023-01-31T04:55:29;15.05;;;8.55;;
69981;SDS011;57319;56.274;43.980;2023-01-31T04:57:54;15.23;;;8.57;;
69981;SDS011;57319;56.274;43.980;2023-01-31T05:00:20;11.80;;;8.38;;
69981;SDS011;57319;56.274;43.980;2023-01-31T05:02:45;15.07;;;8.50;;
69981;SDS011;57319;56.274;43.980;2023-01-31T05:05:11;16.65;;;8.45;;
69981;SDS011;57319;56.274;43.980;2023-01-31T05:07:37;20.08;;;9.00;;
69981;SDS011;57319;56.274;43.980;2023-01-31T05:10:03;14.32;;;8.13;;
69981;SDS011;57319;56.274;43.980;2023-01-31T05:12:29;13.15;;;7.63;;
69981;SDS011;57319;56.274;43.980;2023-01-31T05:14:55;16.77;;;8.88;;
69981;SDS011;57319;56.274;43.980;2023-01-31T05:17:20;15.43;;;8.73;;
69981;SDS011;57319;56.274;43.980;2023-01-31T05:19:54;17.15;;;8.90;;
69981;SDS011;57319;56.274;43.980;2023-01-31T05:22:22;13.63;;;8.48;;
69981;SDS011;57319;56.274;43.980;2023-01-31T05:24:49;21.00;;;8.73;;
69981;SDS011;57319;56.274;43.980;2023-01-31T05:27:15;18.00;;;8.93;;
69981;SDS011;57319;56.274;43.980;2023-01-31T05:29:41;18.05;;;8.60;;
69981;SDS011;57319;56.274;43.980;2023-01-31T05:32:07;21.08;;;8.95;;
69981;SDS011;57319;56.274;43.980;2023-01-31T05:34:32;16.30;;;7.90;;
69981;SDS011;57319;56.274;43.980;2023-01-31T05:36:59;17.52;;;8.43;;
69981;SDS011;57319;56.274;43.980;2023-01-31T05:39:25;15.10;;;8.73;;
69981;SDS011;57319;56.274;43.980;2023-01-31T05:41:51;16.85;;;8.77;;
69981;SDS011;57319;56.274;43.980;2023-01-31T05:44:17;13.90;;;8.48;;
69981;SDS011;57319;56.274;43.980;2023-01-31T05:46:43;15.07;;;7.15;;
69981;SDS011;57319;56.274;43.980;2023-01-31T05:49:10;14.43;;;8.15;;
69981;SDS011;57319;56.274;43.980;2023-01-31T05:51:36;15.98;;;8.68;;
69981;SDS011;57319;56.274;43.980;2023-01-31T05:54:02;14.98;;;7.93;;
69981;SDS011;57319;56.274;43.980;2023-01-31T05:56:28;17.42;;;7.88;;
69981;SDS011;57319;56.274;43.980;2023-01-31T05:58:54;14.90;;;8.10;;
69981;SDS011;57319;56.274;43.980;2023-01-31T06:01:21;14.43;;;7.32;;
69981;SDS011;57319;56.274;43.980;2023-01-31T06:03:49;12.68;;;7.47;;
69981;SDS011;57319;56.274;43.980;2023-01-31T06:06:15;13.25;;;7.82;;
69981;SDS011;57319;56.274;43.980;2023-01-31T06:08:41;11.98;;;8.20;;
69981;SDS011;57319;56.274;43.980;2023-01-31T06:11:07;11.55;;;7.00;;
69981;SDS011;57319;56.274;43.980;2023-01-31T06:13:35;13.60;;;7.38;;
69981;SDS011;57319;56.274;43.980;2023-01-31T06:16:01;13.98;;;8.38;;
69981;SDS011;57319;56.274;43.980;2023-01-31T06:18:27;11.50;;;7.30;;
69981;SDS011;57319;56.274;43.980;2023-01-31T06:20:53;14.63;;;7.78;;
69981;SDS011;57319;56.274;43.980;2023-01-31T06:23:18;16.20;;;6.82;;
69981;SDS011;57319;56.274;43.980;2023-01-31T06:25:48;14.60;;;6.72;;
69981;SDS011;57319;56.274;43.980;2023-01-31T06:28:15;9.70;;;7.03;;
69981;SDS011;57319;56.274;43.980;2023-01-31T06:30:41;15.20;;;7.53;;
69981;SDS011;57319;56.274;43.980;2023-01-31T06:33:06;11.02;;;6.10;;
69981;SDS011;57319;56.274;43.980;2023-01-31T06:35:33;12.25;;;6.32;;
69981;SDS011;57319;56.274;43.980;2023-01-31T06:37:58;10.50;;;6.55;;
69981;SDS011;57319;56.274;43.980;2023-01-31T06:40:24;10.60;;;6.80;;
69981;SDS011;57319;56.274;43.980;2023-01-31T06:42:50;8.77;;;5.68;;
69981;SDS011;57319;56.274;43.980;2023-01-31T06:45:15;10.25;;;6.97;;
69981;SDS011;57319;56.274;43.980;2023-01-31T06:47:43;14.82;;;6.78;;
69981;SDS011;57319;56.274;43.980;2023-01-31T06:50:10;12.93;;;6.65;;
69981;SDS011;57319;56.274;43.980;2023-01-31T06:52:36;11.82;;;6.93;;
69981;SDS011;57319;56.274;43.980;2023-01-31T06:55:03;13.10;;;7.10;;
69981;SDS011;57319;56.274;43.980;2023-01-31T06:57:29;8.63;;;5.70;;
69981;SDS011;57319;56.274;43.980;2023-01-31T06:59:54;15.45;;;6.10;;
69981;SDS011;57319;56.274;43.980;2023-01-31T07:02:20;11.10;;;5.22;;
69981;SDS011;57319;56.274;43.980;2023-01-31T07:04:45;7.47;;;5.32;;
69981;SDS011;57319;56.274;43.980;2023-01-31T07:07:11;6.85;;;5.10;;
69981;SDS011;57319;56.274;43.980;2023-01-31T07:09:36;9.57;;;6.20;;
69981;SDS011;57319;56.274;43.980;2023-01-31T07:12:02;9.13;;;5.57;;
69981;SDS011;57319;56.274;43.980;2023-01-31T07:14:28;8.65;;;5.75;;
69981;SDS011;57319;56.274;43.980;2023-01-31T07:16:53;6.45;;;5.18;;
69981;SDS011;57319;56.274;43.980;2023-01-31T07:19:19;8.88;;;5.55;;
69981;SDS011;57319;56.274;43.980;2023-01-31T07:21:44;12.02;;;5.93;;
69981;SDS011;57319;56.274;43.980;2023-01-31T07:24:13;11.82;;;5.90;;
69981;SDS011;57319;56.274;43.980;2023-01-31T07:26:40;9.02;;;6.28;;
69981;SDS011;57319;56.274;43.980;2023-01-31T07:29:05;12.45;;;6.13;;
69981;SDS011;57319;56.274;43.980;2023-01-31T07:31:31;12.13;;;6.57;;
69981;SDS011;57319;56.274;43.980;2023-01-31T07:33:57;12.77;;;6.78;;
69981;SDS011;57319;56.274;43.980;2023-01-31T07:36:23;14.73;;;7.50;;
69981;SDS011;57319;56.274;43.980;2023-01-31T07:38:53;11.20;;;7.43;;
69981;SDS011;57319;56.274;43.980;2023-01-31T07:41:22;15.52;;;7.57;;
69981;SDS011;57319;56.274;43.980;2023-01-31T07:43:49;13.80;;;7.03;;
69981;SDS011;57319;56.274;43.980;2023-01-31T07:46:15;15.32;;;7.85;;
69981;SDS011;57319;56.274;43.980;2023-01-31T07:48:41;12.55;;;7.38;;
69981;SDS011;57319;56.274;43.980;2023-01-31T07:51:07;13.90;;;7.55;;
69981;SDS011;57319;56.274;43.980;2023-01-31T07:53:35;14.27;;;7.63;;
69981;SDS011;57319;56.274;43.980;2023-01-31T07:56:07;16.08;;;8.07;;
69981;SDS011;57319;56.274;43.980;2023-01-31T07:58:40;16.52;;;7.78;;
69981;SDS011;57319;56.274;43.980;2023-01-31T08:01:09;18.08;;;8.65;;
69981;SDS011;57319;56.274;43.980;2023-01-31T08:03:59;14.27;;;7.57;;
69981;SDS011;57319;56.274;43.980;2023-01-31T08:06:25;13.13;;;8.13;;
69981;SDS011;57319;56.274;43.980;2023-01-31T08:08:53;15.95;;;8.77;;
69981;SDS011;57319;56.274;43.980;2023-01-31T08:11:19;14.52;;;8.45;;
69981;SDS011;57319;56.274;43.980;2023-01-31T08:13:45;17.95;;;9.00;;
69981;SDS011;57319;56.274;43.980;2023-01-31T08:16:10;16.13;;;9.50;;
69981;SDS011;57319;56.274;43.980;2023-01-31T08:18:36;11.57;;;6.53;;
69981;SDS011;57319;56.274;43.980;2023-01-31T08:21:03;19.80;;;9.70;;
69981;SDS011;57319;56.274;43.980;2023-01-31T08:23:29;16.90;;;9.45;;
69981;SDS011;57319;56.274;43.980;2023-01-31T08:26:02;15.07;;;8.85;;
69981;SDS011;57319;56.274;43.980;2023-01-31T08:28:29;21.55;;;10.13;;
69981;SDS011;57319;56.274;43.980;2023-01-31T08:30:55;22.48;;;10.23;;
69981;SDS011;57319;56.274;43.980;2023-01-31T08:33:22;16.70;;;9.82;;
69981;SDS011;57319;56.274;43.980;2023-01-31T08:35:47;20.02;;;10.18;;
69981;SDS011;57319;56.274;43.980;2023-01-31T08:38:13;14.43;;;9.23;;
69981;SDS011;57319;56.274;43.980;2023-01-31T08:40:39;22.02;;;10.63;;
69981;SDS011;57319;56.274;43.980;2023-01-31T08:43:04;17.48;;;9.80;;
69981;SDS011;57319;56.274;43.980;2023-01-31T08:45:30;20.15;;;9.85;;
69981;SDS011;57319;56.274;43.980;2023-01-31T08:47:56;20.42;;;10.75;;
69981;SDS011;57319;56.274;43.980;2023-01-31T08:50:24;20.17;;;9.70;;
69981;SDS011;57319;56.274;43.980;2023-01-31T08:52:52;20.85;;;9.77;;
69981;SDS011;57319;56.274;43.980;2023-01-31T08:55:21;19.08;;;9.80;;
69981;SDS011;57319;56.274;43.980;2023-01-31T08:57:48;18.60;;;8.98;;
69981;SDS011;57319;56.274;43.980;2023-01-31T09:00:15;18.10;;;8.85;;
69981;SDS011;57319;56.274;43.980;2023-01-31T09:02:42;16.75;;;9.25;;
69981;SDS011;57319;56.274;43.980;2023-01-31T09:05:10;14.63;;;8.77;;
69981;SDS011;57319;56.274;43.980;2023-01-31T09:07:37;19.73;;;9.05;;
69981;SDS011;57319;56.274;43.980;2023-01-31T09:10:03;16.70;;;8.52;;
69981;SDS011;57319;56.274;43.980;2023-01-31T09:12:29;15.90;;;8.50;;
69981;SDS011;57319;56.274;43.980;2023-01-31T09:14:55;16.17;;;8.48;;
69981;SDS011;57319;56.274;43.980;2023-01-31T09:17:20;14.65;;;7.60;;
69981;SDS011;57319;56.274;43.980;2023-01-31T09:19:46;19.10;;;8.45;;
69981;SDS011;57319;56.274;43.980;2023-01-31T09:22:12;16.90;;;8.18;;
69981;SDS011;57319;56.274;43.980;2023-01-31T09:24:38;14.82;;;8.95;;
69981;SDS011;57319;56.274;43.980;2023-01-31T09:27:04;12.90;;;8.02;;
69981;SDS011;57319;56.274;43.980;2023-01-31T09:29:30;16.90;;;8.60;;
69981;SDS011;57319;56.274;43.980;2023-01-31T09:31:56;16.38;;;8.55;;
69981;SDS011;57319;56.274;43.980;2023-01-31T09:34:21;13.07;;;7.95;;
69981;SDS011;57319;56.274;43.980;2023-01-31T09:36:47;15.02;;;8.30;;
69981;SDS011;57319;56.274;43.980;2023-01-31T09:39:13;18.27;;;8.45;;
69981;SDS011;57319;56.274;43.980;2023-01-31T09:44:15;16.23;;;9.40;;
69981;SDS011;57319;56.274;43.980;2023-01-31T09:49:51;18.38;;;9.20;;
69981;SDS011;57319;56.274;43.980;2023-01-31T09:52:33;21.35;;;9.75;;
69981;SDS011;57319;56.274;43.980;2023-01-31T09:54:59;17.85;;;10.52;;
69981;SDS011;57319;56.274;43.980;2023-01-31T10:00:35;16.70;;;9.50;;
69981;SDS011;57319;56.274;43.980;2023-01-31T10:03:29;15.48;;;9.15;;
69981;SDS011;57319;56.274;43.980;2023-01-31T10:09:11;19.45;;;9.82;;
69981;SDS011;57319;56.274;43.980;2023-01-31T10:11:55;19.10;;;9.88;;
69981;SDS011;57319;56.274;43.980;2023-01-31T10:22:51;19.88;;;9.65;;
69981;SDS011;57319;56.274;43.980;2023-01-31T10:25:32;22.02;;;10.98;;
69981;SDS011;57319;56.274;43.980;2023-01-31T10:28:03;21.55;;;10.23;;
69981;SDS011;57319;56.274;43.980;2023-01-31T10:30:41;19.10;;;10.05;;
69981;SDS011;57319;56.274;43.980;2023-01-31T10:33:27;22.83;;;11.18;;
69981;SDS011;57319;56.274;43.980;2023-01-31T10:36:04;24.17;;;10.57;;
69981;SDS011;57319;56.274;43.980;2023-01-31T10:38:37;23.45;;;11.68;;
69981;SDS011;57319;56.274;43.980;2023-01-31T10:41:17;24.30;;;11.40;;
69981;SDS011;57319;56.274;43.980;2023-01-31T10:43:56;22.13;;;11.35;;
69981;SDS011;57319;56.274;43.980;2023-01-31T10:46:26;22.80;;;11.15;;
69981;SDS011;57319;56.274;43.980;2023-01-31T10:48:51;25.45;;;10.52;;
69981;SDS011;57319;56.274;43.980;2023-01-31T10:54:11;23.85;;;12.30;;
69981;SDS011;57319;56.274;43.980;2023-01-31T10:56:45;24.13;;;11.93;;
69981;SDS011;57319;56.274;43.980;2023-01-31T10:59:16;26.55;;;11.30;;
69981;SDS011;57319;56.274;43.980;2023-01-31T11:01:49;26.08;;;11.60;;
69981;SDS011;57319;56.274;43.980;2023-01-31T11:04:25;20.80;;;10.48;;
69981;SDS011;57319;56.274;43.980;2023-01-31T11:06:55;24.13;;;12.13;;
69981;SDS011;57319;56.274;43.980;2023-01-31T11:09:22;28.00;;;12.13;;
69981;SDS011;57319;56.274;43.980;2023-01-31T11:11:55;25.15;;;12.88;;
69981;SDS011;57319;56.274;43.980;2023-01-31T11:14:22;26.08;;;12.77;;
69981;SDS011;57319;56.274;43.980;2023-01-31T11:16:48;25.33;;;12.20;;
69981;SDS011;57319;56.274;43.980;2023-01-31T11:19:28;28.85;;;12.23;;
69981;SDS011;57319;56.274;43.980;2023-01-31T11:21:53;27.45;;;12.27;;
69981;SDS011;57319;56.274;43.980;2023-01-31T11:24:21;25.08;;;12.52;;
69981;SDS011;57319;56.274;43.980;2023-01-31T11:26:52;28.30;;;11.70;;
69981;SDS011;57319;56.274;43.980;2023-01-31T11:29:28;26.08;;;12.25;;
69981;SDS011;57319;56.274;43.980;2023-01-31T11:32:00;26.33;;;12.70;;
69981;SDS011;57319;56.274;43.980;2023-01-31T11:34:31;24.70;;;12.40;;
69981;SDS011;57319;56.274;43.980;2023-01-31T11:39:40;25.17;;;12.00;;
69981;SDS011;57319;56.274;43.980;2023-01-31T11:42:09;26.75;;;11.90;;
69981;SDS011;57319;56.274;43.980;2023-01-31T11:44:52;25.65;;;10.73;;
69981;SDS011;57319;56.274;43.980;2023-01-31T11:47:46;31.33;;;12.18;;
69981;SDS011;57319;56.274;43.980;2023-01-31T11:53:18;22.23;;;11.18;;
69981;SDS011;57319;56.274;43.980;2023-01-31T11:56:18;29.30;;;11.07;;
69981;SDS011;57319;56.274;43.980;2023-01-31T11:58:49;23.92;;;10.85;;
69981;SDS011;57319;56.274;43.980;2023-01-31T12:01:19;25.35;;;10.98;;
69981;SDS011;57319;56.274;43.980;2023-01-31T12:03:48;19.70;;;10.07;;
69981;SDS011;57319;56.274;43.980;2023-01-31T12:06:38;27.20;;;11.52;;
69981;SDS011;57319;56.274;43.980;2023-01-31T12:09:17;34.30;;;11.65;;
69981;SDS011;57319;56.274;43.980;2023-01-31T12:11:54;20.52;;;10.50;;
69981;SDS011;57319;56.274;43.980;2023-01-31T12:14:36;23.20;;;11.20;;
69981;SDS011;57319;56.274;43.980;2023-01-31T12:17:04;21.52;;;10.82;;
69981;SDS011;57319;56.274;43.980;2023-01-31T12:19:39;23.23;;;10.75;;
69981;SDS011;57319;56.274;43.980;2023-01-31T13:03:28;17.80;;;8.80;;
69981;SDS011;57319;56.274;43.980;2023-01-31T13:06:17;18.35;;;8.10;;
69981;SDS011;57319;56.274;43.980;2023-01-31T13:12:08;18.35;;;9.02;;
69981;SDS011;57319;56.274;43.980;2023-01-31T13:14:21;19.83;;;9.38;;
69981;SDS011;57319;56.274;43.980;2023-01-31T13:16:54;17.48;;;9.05;;
69981;SDS011;57319;56.274;43.980;2023-01-31T13:21:56;20.75;;;10.10;;
69981;SDS011;57319;56.274;43.980;2023-01-31T13:24:28;14.95;;;7.97;;
69981;SDS011;57319;56.274;43.980;2023-01-31T13:27:08;17.10;;;8.82;;
69981;SDS011;57319;56.274;43.980;2023-01-31T13:30:01;16.92;;;8.98;;
69981;SDS011;57319;56.274;43.980;2023-01-31T13:37:52;17.58;;;8.63;;
69981;SDS011;57319;56.274;43.980;2023-01-31T13:40:28;20.05;;;7.82;;
69981;SDS011;57319;56.274;43.980;2023-01-31T13:42:59;17.17;;;8.75;;
69981;SDS011;57319;56.274;43.980;2023-01-31T13:45:34;16.83;;;8.18;;
69981;SDS011;57319;56.274;43.980;2023-01-31T13:48:07;15.27;;;8.40;;
69981;SDS011;57319;56.274;43.980;2023-01-31T13:50:45;14.73;;;8.48;;
69981;SDS011;57319;56.274;43.980;2023-01-31T13:53:21;19.73;;;9.18;;
69981;SDS011;57319;56.274;43.980;2023-01-31T13:55:51;22.67;;;9.10;;
69981;SDS011;57319;56.274;43.980;2023-01-31T13:58:22;18.60;;;8.95;;
69981;SDS011;57319;56.274;43.980;2023-01-31T14:03:29;22.98;;;9.13;;
69981;SDS011;57319;56.274;43.980;2023-01-31T14:05:59;19.10;;;8.82;;
69981;SDS011;57319;56.274;43.980;2023-01-31T14:10:52;18.10;;;8.98;;
69981;SDS011;57319;56.274;43.980;2023-01-31T14:15:54;19.70;;;8.23;;
69981;SDS011;57319;56.274;43.980;2023-01-31T14:23:53;18.17;;;8.55;;
69981;SDS011;57319;56.274;43.980;2023-01-31T14:29:07;24.25;;;9.48;;
69981;SDS011;57319;56.274;43.980;2023-01-31T14:31:42;15.77;;;8.13;;
69981;SDS011;57319;56.274;43.980;2023-01-31T14:36:47;17.90;;;8.45;;
69981;SDS011;57319;56.274;43.980;2023-01-31T14:45:13;15.18;;;8.35;;
69981;SDS011;57319;56.274;43.980;2023-01-31T14:53:21;18.85;;;10.02;;
69981;SDS011;57319;56.274;43.980;2023-01-31T14:58:41;16.70;;;8.52;;
69981;SDS011;57319;56.274;43.980;2023-01-31T15:01:09;19.98;;;9.38;;
69981;SDS011;57319;56.274;43.980;2023-01-31T15:03:49;15.63;;;8.35;;
69981;SDS011;57319;56.274;43.980;2023-01-31T15:06:23;16.23;;;8.68;;
69981;SDS011;57319;56.274;43.980;2023-01-31T15:09:15;20.13;;;9.55;;
69981;SDS011;57319;56.274;43.980;2023-01-31T15:11:46;9.43;;;6.35;;
69981;SDS011;57319;56.274;43.980;2023-01-31T15:14:24;14.40;;;8.10;;
69981;SDS011;57319;56.274;43.980;2023-01-31T15:17:01;14.57;;;8.05;;
69981;SDS011;57319;56.274;43.980;2023-01-31T15:19:39;16.92;;;9.45;;
69981;SDS011;57319;56.274;43.980;2023-01-31T15:22:10;15.45;;;9.00;;
69981;SDS011;57319;56.274;43.980;2023-01-31T15:24:40;17.73;;;8.40;;
69981;SDS011;57319;56.274;43.980;2023-01-31T15:27:13;20.40;;;10.18;;
69981;SDS011;57319;56.274;43.980;2023-01-31T15:35:05;19.58;;;10.00;;
69981;SDS011;57319;56.274;43.980;2023-01-31T15:37:38;21.27;;;10.80;;
69981;SDS011;57319;56.274;43.980;2023-01-31T15:40:12;17.73;;;9.38;;
69981;SDS011;57319;56.274;43.980;2023-01-31T15:42:44;17.40;;;9.98;;
69981;SDS011;57319;56.274;43.980;2023-01-31T15:47:42;19.08;;;9.98;;
69981;SDS011;57319;56.274;43.980;2023-01-31T15:50:27;17.42;;;9.15;;
69981;SDS011;57319;56.274;43.980;2023-01-31T15:52:55;21.67;;;11.27;;
69981;SDS011;57319;56.274;43.980;2023-01-31T15:55:25;16.75;;;9.85;;
69981;SDS011;57319;56.274;43.980;2023-01-31T15:57:52;22.23;;;10.45;;
69981;SDS011;57319;56.274;43.980;2023-01-31T16:00:25;19.10;;;10.60;;
69981;SDS011;57319;56.274;43.980;2023-01-31T16:02:54;22.60;;;10.85;;
69981;SDS011;57319;56.274;43.980;2023-01-31T16:05:30;21.33;;;11.15;;
69981;SDS011;57319;56.274;43.980;2023-01-31T16:07:58;23.55;;;9.95;;
69981;SDS011;57319;56.274;43.980;2023-01-31T16:10:26;17.92;;;9.85;;
69981;SDS011;57319;56.274;43.980;2023-01-31T16:12:54;24.13;;;11.07;;
69981;SDS011;57319;56.274;43.980;2023-01-31T16:15:28;21.95;;;10.07;;
69981;SDS011;57319;56.274;43.980;2023-01-31T16:17:56;24.77;;;11.10;;
69981;SDS011;57319;56.274;43.980;2023-01-31T16:28:35;28.08;;;10.80;;
69981;SDS011;57319;56.274;43.980;2023-01-31T16:31:09;23.55;;;11.68;;
69981;SDS011;57319;56.274;43.980;2023-01-31T16:33:44;18.25;;;10.30;;
69981;SDS011;57319;56.274;43.980;2023-01-31T16:36:12;24.42;;;10.77;;
69981;SDS011;57319;56.274;43.980;2023-01-31T16:38:39;22.05;;;11.15;;
69981;SDS011;57319;56.274;43.980;2023-01-31T16:41:07;23.58;;;11.20;;
69981;SDS011;57319;56.274;43.980;2023-01-31T16:43:37;26.60;;;11.60;;
69981;SDS011;57319;56.274;43.980;2023-01-31T16:46:09;20.38;;;10.23;;
69981;SDS011;57319;56.274;43.980;2023-01-31T16:49:04;21.77;;;11.15;;
69981;SDS011;57319;56.274;43.980;2023-01-31T16:51:38;18.05;;;10.65;;
69981;SDS011;57319;56.274;43.980;2023-01-31T16:54:13;21.25;;;10.48;;
69981;SDS011;57319;56.274;43.980;2023-01-31T16:56:40;20.40;;;10.52;;
69981;SDS011;57319;56.274;43.980;2023-01-31T16:59:53;19.98;;;10.63;;
69981;SDS011;57319;56.274;43.980;2023-01-31T17:04:50;21.27;;;10.95;;
69981;SDS011;57319;56.274;43.980;2023-01-31T17:07:23;19.92;;;10.15;;
69981;SDS011;57319;56.274;43.980;2023-01-31T17:10:00;26.55;;;11.55;;
69981;SDS011;57319;56.274;43.980;2023-01-31T17:12:29;24.65;;;10.25;;
69981;SDS011;57319;56.274;43.980;2023-01-31T17:14:57;18.48;;;10.27;;
69981;SDS011;57319;56.274;43.980;2023-01-31T17:17:27;17.67;;;9.77;;
69981;SDS011;57319;56.274;43.980;2023-01-31T17:19:54;24.13;;;9.50;;
69981;SDS011;57319;56.274;43.980;2023-01-31T17:22:20;16.63;;;10.00;;
69981;SDS011;57319;56.274;43.980;2023-01-31T17:24:49;22.13;;;10.75;;
69981;SDS011;57319;56.274;43.980;2023-01-31T17:27:16;21.95;;;10.88;;
69981;SDS011;57319;56.274;43.980;2023-01-31T17:29:43;17.17;;;9.80;;
69981;SDS011;57319;56.274;43.980;2023-01-31T17:32:12;19.20;;;10.98;;